createdAt,value
2018-07-09T05:02:43.279Z,15.60
2018-07-09T05:05:12.538Z,15.80
2018-07-09T05:07:41.092Z,16.00
2018-07-09T05:10:09.733Z,16.00
2018-07-09T05:12:38.322Z,16.20
2018-07-09T05:15:07.905Z,16.30
2018-07-09T05:17:36.506Z,16.30
2018-07-09T05:20:05.087Z,16.30
2018-07-09T05:22:33.665Z,16.40
2018-07-09T05:25:03.724Z,16.40
2018-07-09T05:27:32.262Z,16.50
2018-07-09T05:30:00.919Z,16.50
2018-07-09T05:32:29.522Z,16.50
2018-07-09T05:34:58.103Z,16.50
2018-07-09T05:37:26.644Z,16.60
2018-07-09T05:39:55.466Z,16.60
2018-07-09T05:42:24.071Z,16.70
2018-07-09T05:44:52.650Z,16.80
2018-07-09T05:47:21.576Z,17.00
2018-07-09T05:52:19.060Z,17.10
2018-07-09T05:54:47.681Z,17.20
2018-07-09T05:57:16.649Z,17.30
2018-07-09T05:59:45.890Z,17.50
2018-07-09T06:02:14.529Z,17.50
2018-07-09T06:04:43.101Z,17.70
2018-07-09T06:07:11.666Z,17.90
2018-07-09T06:09:40.306Z,18.00
2018-07-09T06:12:08.923Z,18.00
2018-07-09T06:14:38.507Z,18.10
2018-07-09T06:17:07.524Z,18.00
2018-07-09T06:19:36.193Z,18.20
2018-07-09T06:22:04.842Z,18.30
2018-07-09T06:24:33.451Z,18.30
2018-07-09T06:27:02.049Z,18.40
2018-07-09T06:29:30.642Z,18.50
2018-07-09T06:31:59.301Z,18.50
2018-07-09T06:34:27.832Z,18.60
2018-07-09T06:36:57.066Z,18.70
2018-07-09T06:39:25.651Z,18.70
2018-07-09T06:41:54.225Z,18.60
2018-07-09T06:44:25.843Z,18.70
2018-07-09T06:46:54.371Z,18.70
2018-07-09T06:49:23.251Z,18.90
2018-07-09T06:51:51.866Z,18.90
2018-07-09T06:54:20.419Z,19.00
2018-07-09T06:56:48.995Z,18.90
2018-07-09T06:59:17.630Z,19.10
2018-07-09T07:01:46.214Z,19.20
2018-07-09T07:04:14.812Z,19.10
2018-07-09T07:06:43.434Z,19.20
2018-07-09T07:09:12.062Z,19.30
2018-07-09T07:11:40.636Z,19.40
2018-07-09T07:14:09.195Z,19.40
2018-07-09T07:16:38.253Z,19.40
2018-07-09T07:19:06.822Z,19.40
2018-07-09T07:21:37.142Z,19.60
2018-07-09T07:24:06.118Z,20.00
2018-07-09T07:26:34.816Z,20.00
2018-07-09T07:29:03.454Z,20.20
2018-07-09T07:31:32.018Z,20.30
2018-07-09T07:34:00.591Z,20.30
2018-07-09T07:36:29.209Z,20.30
2018-07-09T07:38:57.811Z,20.30
2018-07-09T07:41:26.354Z,20.40
2018-07-09T07:43:55.191Z,20.30
2018-07-09T07:46:23.998Z,20.30
2018-07-09T07:48:52.778Z,20.30
2018-07-09T07:51:21.513Z,20.40
2018-07-09T07:53:50.308Z,20.50
2018-07-09T07:56:19.253Z,20.50
2018-07-09T07:58:47.875Z,20.40
2018-07-09T08:01:16.468Z,20.50
2018-07-09T08:03:45.114Z,20.60
2018-07-09T08:06:13.692Z,20.60
2018-07-09T08:08:42.264Z,20.60
2018-07-09T08:11:11.325Z,20.70
2018-07-09T08:13:41.022Z,20.70
2018-07-09T08:16:09.829Z,20.70
2018-07-09T08:21:06.792Z,20.90
2018-07-09T08:23:35.358Z,20.90
2018-07-09T08:26:03.980Z,20.90
2018-07-09T08:28:32.594Z,21.10
2018-07-09T08:31:01.229Z,21.10
2018-07-09T08:33:29.759Z,21.00
2018-07-09T08:35:58.382Z,21.00
2018-07-09T08:38:26.963Z,21.00
2018-07-09T08:40:55.576Z,21.00
2018-07-09T08:43:24.252Z,21.00
2018-07-09T08:45:52.854Z,20.90
2018-07-09T08:48:21.438Z,21.00
2018-07-09T08:50:50.067Z,21.10
2018-07-09T08:53:18.641Z,21.20
2018-07-09T08:55:47.194Z,21.20
2018-07-09T08:58:15.898Z,21.30
2018-07-09T09:00:44.499Z,21.30
2018-07-09T09:03:13.077Z,21.40
2018-07-09T09:05:41.739Z,21.30
2018-07-09T09:08:10.337Z,21.40
2018-07-09T09:10:38.967Z,21.50
2018-07-09T09:13:07.687Z,21.40
2018-07-09T09:15:36.309Z,21.30
2018-07-09T09:18:05.046Z,21.40
2018-07-09T09:20:33.707Z,21.20
2018-07-09T09:23:02.303Z,21.30
2018-07-09T09:25:30.893Z,21.50
2018-07-09T09:27:59.475Z,21.60
2018-07-09T09:30:28.772Z,21.70
2018-07-09T09:32:57.376Z,21.80
2018-07-09T09:35:26.048Z,21.90
2018-07-09T09:37:54.974Z,21.90
2018-07-09T09:40:23.570Z,21.80
2018-07-09T09:42:52.315Z,21.70
2018-07-09T09:45:21.297Z,21.70
2018-07-09T09:47:49.899Z,21.70
2018-07-09T09:50:18.534Z,21.70
2018-07-09T09:52:47.159Z,21.70
2018-07-09T09:55:15.792Z,21.80
2018-07-09T09:57:45.475Z,21.80
2018-07-09T10:00:14.076Z,21.80
2018-07-09T10:02:42.682Z,22.00
2018-07-09T10:05:11.281Z,22.20
2018-07-09T10:07:39.861Z,22.20
2018-07-09T10:10:08.487Z,22.20
2018-07-09T10:15:05.414Z,22.50
2018-07-09T10:17:35.132Z,22.60
2018-07-09T10:20:03.817Z,22.50
2018-07-09T10:22:32.430Z,22.60
2018-07-09T10:25:01.059Z,22.60
2018-07-09T10:27:29.730Z,22.80
2018-07-09T10:29:58.935Z,22.80
2018-07-09T10:32:28.290Z,23.10
2018-07-09T10:34:56.872Z,23.20
2018-07-09T10:37:25.431Z,23.20
2018-07-09T10:39:54.087Z,23.20
2018-07-09T10:42:22.734Z,23.40
2018-07-09T10:44:51.290Z,23.50
2018-07-09T10:47:22.798Z,23.60
2018-07-09T10:49:51.390Z,23.70
2018-07-09T10:52:19.996Z,23.60
2018-07-09T10:54:50.803Z,23.60
2018-07-09T10:57:20.121Z,23.60
2018-07-09T10:59:49.008Z,23.80
2018-07-09T11:02:17.654Z,24.10
2018-07-09T11:04:47.250Z,24.30
2018-07-09T11:07:15.829Z,24.30
2018-07-09T11:09:44.433Z,24.50
2018-07-09T11:14:41.540Z,24.60
2018-07-09T11:17:10.163Z,24.80
2018-07-09T11:19:39.058Z,25.00
2018-07-09T11:22:07.655Z,25.00
2018-07-09T11:24:36.287Z,24.90
2018-07-09T11:27:04.882Z,24.90
2018-07-09T11:29:33.419Z,25.00
2018-07-09T11:32:02.024Z,25.00
2018-07-09T11:34:30.932Z,25.10
2018-07-09T11:36:59.835Z,25.20
2018-07-09T11:39:28.640Z,25.60
2018-07-09T11:41:57.221Z,25.70
2018-07-09T11:44:26.214Z,25.60
2018-07-09T11:46:55.227Z,25.60
2018-07-09T11:49:23.782Z,25.90
2018-07-09T11:51:52.392Z,26.00
2018-07-09T11:54:22.469Z,26.30
2018-07-09T11:56:52.760Z,26.20
2018-07-09T11:59:21.343Z,26.90
2018-07-09T12:01:49.969Z,27.20
2018-07-09T12:04:18.546Z,27.80
2018-07-09T12:06:47.146Z,28.40
2018-07-09T12:09:15.816Z,28.60
2018-07-09T12:11:44.479Z,28.30
2018-07-09T12:14:13.171Z,28.40
2018-07-09T12:16:41.847Z,28.80
2018-07-09T12:19:10.501Z,28.50
2018-07-09T12:21:40.624Z,28.20
2018-07-09T12:24:09.198Z,27.60
2018-07-09T12:26:37.842Z,27.00
2018-07-09T12:29:06.711Z,26.70
2018-07-09T12:31:35.256Z,26.90
2018-07-09T12:34:03.819Z,27.50
2018-07-09T12:36:32.579Z,27.70
2018-07-09T12:39:01.147Z,27.70
2018-07-09T12:41:29.708Z,27.80
2018-07-09T12:43:58.377Z,28.30
2018-07-09T12:46:26.994Z,28.80
2018-07-09T12:48:56.203Z,29.00
2018-07-09T12:51:24.785Z,29.30
2018-07-09T12:53:53.355Z,29.50
2018-07-09T12:56:22.250Z,29.40
2018-07-09T12:58:51.053Z,29.60
2018-07-09T13:01:19.690Z,29.90
2018-07-09T13:03:48.228Z,30.00
2018-07-09T13:06:16.818Z,30.30
2018-07-09T13:08:45.441Z,29.80
2018-07-09T13:11:14.018Z,30.30
2018-07-09T13:13:44.482Z,30.60
2018-07-09T13:16:13.123Z,31.00
2018-07-09T13:18:42.082Z,30.70
2018-07-09T13:21:10.718Z,30.60
2018-07-09T13:23:39.378Z,30.80
2018-07-09T13:26:08.581Z,29.70
2018-07-09T13:28:37.170Z,29.40
2018-07-09T13:31:06.101Z,29.00
2018-07-09T13:33:34.722Z,29.60
2018-07-09T13:36:03.962Z,30.30
2018-07-09T13:38:32.930Z,30.60
2018-07-09T13:41:01.909Z,30.60
2018-07-09T13:43:31.321Z,30.70
2018-07-09T13:46:00.025Z,30.70
2018-07-09T13:48:28.573Z,30.70
2018-07-09T13:50:57.227Z,30.00
2018-07-09T13:53:26.215Z,29.80
2018-07-09T13:55:54.854Z,29.30
2018-07-09T13:58:24.576Z,28.40
2018-07-09T14:00:53.148Z,28.20
2018-07-09T14:03:21.691Z,28.30
2018-07-09T14:05:50.668Z,28.40
2018-07-09T14:08:19.220Z,28.50
2018-07-09T14:10:47.804Z,28.60
2018-07-09T14:13:16.429Z,28.80
2018-07-09T14:15:45.019Z,28.00
2018-07-09T14:18:13.635Z,28.00
2018-07-09T14:20:43.395Z,28.10
2018-07-09T14:23:13.193Z,28.40
2018-07-09T14:25:41.966Z,28.70
2018-07-09T14:28:10.627Z,28.80
2018-07-09T14:30:39.248Z,29.00
2018-07-09T14:33:08.124Z,29.10
2018-07-09T14:35:36.754Z,29.20
2018-07-09T14:38:05.743Z,29.20
2018-07-09T14:40:34.363Z,29.50
2018-07-09T14:43:03.581Z,29.90
2018-07-09T14:45:32.261Z,30.10
2018-07-09T14:48:00.833Z,30.30
2018-07-09T14:50:29.418Z,30.20
2018-07-09T14:55:26.141Z,30.20
2018-07-09T14:57:54.730Z,29.80
2018-07-09T15:00:24.351Z,29.90
2018-07-09T15:02:52.916Z,29.10
2018-07-09T15:05:21.481Z,28.60
2018-07-09T15:07:50.021Z,28.50
2018-07-09T15:10:18.591Z,28.90
2018-07-09T15:12:47.211Z,29.30
2018-07-09T15:15:16.058Z,29.00
2018-07-09T15:17:44.616Z,28.50
2018-07-09T15:20:13.178Z,28.30
2018-07-09T15:22:41.737Z,28.80
2018-07-09T15:25:10.558Z,28.70
2018-07-09T15:27:39.771Z,27.90
2018-07-09T15:30:08.342Z,27.40
2018-07-09T15:32:37.188Z,27.30
2018-07-09T15:35:05.803Z,27.60
2018-07-09T15:37:34.739Z,27.90
2018-07-09T15:40:04.209Z,28.00
2018-07-09T15:42:33.155Z,27.90
2018-07-09T15:45:01.676Z,27.50
2018-07-09T15:47:30.214Z,27.50
2018-07-09T15:49:58.785Z,26.90
2018-07-09T15:52:27.340Z,26.50
2018-07-09T15:54:57.020Z,26.70
2018-07-09T15:57:25.660Z,27.30
2018-07-09T15:59:54.252Z,27.40
2018-07-09T16:02:22.781Z,27.10
2018-07-09T16:04:51.361Z,27.30
2018-07-09T16:07:19.903Z,27.20
2018-07-09T16:09:48.497Z,27.10
2018-07-09T16:12:17.046Z,27.50
2018-07-09T16:14:45.626Z,27.50
2018-07-09T16:17:14.167Z,27.60
2018-07-09T16:19:42.739Z,27.40
2018-07-09T16:22:11.330Z,27.40
2018-07-09T16:24:39.915Z,27.20
2018-07-09T16:27:08.498Z,27.00
2018-07-09T16:29:37.059Z,26.40
2018-07-09T16:32:05.664Z,26.00
2018-07-09T16:34:34.261Z,25.80
2018-07-09T16:37:02.784Z,25.90
2018-07-09T16:39:31.336Z,26.10
2018-07-09T16:41:59.931Z,25.70
2018-07-09T16:44:29.107Z,25.80
2018-07-09T16:46:57.716Z,25.50
2018-07-09T16:49:26.315Z,25.50
2018-07-09T16:51:55.291Z,25.30
2018-07-09T16:54:23.853Z,25.30
2018-07-09T16:56:54.955Z,25.10
2018-07-09T16:59:23.766Z,24.70
2018-07-09T17:01:52.356Z,24.70
2018-07-09T17:04:20.926Z,24.50
2018-07-09T17:06:49.757Z,24.50
2018-07-09T17:09:18.354Z,24.40
2018-07-09T17:11:46.938Z,24.20
2018-07-09T17:14:15.510Z,24.30
2018-07-09T17:16:44.074Z,24.50
2018-07-09T17:19:12.744Z,24.50
2018-07-09T17:21:41.302Z,24.80
2018-07-09T17:24:09.864Z,24.80
2018-07-09T17:26:38.942Z,24.90
2018-07-09T17:29:07.410Z,24.80
2018-07-09T17:31:36.387Z,24.80
2018-07-09T17:34:05.085Z,24.60
2018-07-09T17:36:33.613Z,24.60
2018-07-09T17:39:02.180Z,24.40
2018-07-09T17:41:30.867Z,24.40
2018-07-09T17:43:59.535Z,24.30
2018-07-09T17:46:28.161Z,24.30
2018-07-09T17:48:56.721Z,24.20
2018-07-09T17:51:26.319Z,24.00
2018-07-09T17:53:55.556Z,24.00
2018-07-09T17:56:24.147Z,24.10
2018-07-09T17:58:54.835Z,23.80
2018-07-09T18:01:23.370Z,23.70
2018-07-09T18:03:51.941Z,23.70
2018-07-09T18:06:22.880Z,23.50
2018-07-09T18:08:51.482Z,23.60
2018-07-09T18:11:20.071Z,23.60
2018-07-09T18:13:48.696Z,23.60
2018-07-09T18:16:17.322Z,23.60
2018-07-09T18:18:45.943Z,23.40
2018-07-09T18:21:14.610Z,23.30
2018-07-09T18:23:43.194Z,23.40
2018-07-09T18:26:11.789Z,23.40
2018-07-09T18:28:40.363Z,23.30
2018-07-09T18:31:08.934Z,23.20
2018-07-09T18:33:37.775Z,23.20
2018-07-09T18:36:06.447Z,23.10
2018-07-09T18:38:35.051Z,23.00
2018-07-09T18:41:03.650Z,22.90
2018-07-09T18:43:32.301Z,22.90
2018-07-09T18:46:00.858Z,22.80
2018-07-09T18:48:29.541Z,22.90
2018-07-09T18:50:58.044Z,22.80
2018-07-09T18:53:26.606Z,22.60
2018-07-09T18:55:55.798Z,22.50
2018-07-09T18:58:24.478Z,22.50
2018-07-09T19:00:53.022Z,22.50
2018-07-09T19:03:21.621Z,22.60
2018-07-09T19:07:15.115Z,22.50
2018-07-09T19:09:43.979Z,22.30
2018-07-09T19:12:12.554Z,22.10
2018-07-09T19:14:44.052Z,22.00
2018-07-09T19:18:27.888Z,22.00
2018-07-09T19:21:34.950Z,21.80
2018-07-09T19:24:03.419Z,21.70
2018-07-09T19:26:30.740Z,21.50
2018-07-09T19:28:58.130Z,21.40
2018-07-09T19:31:25.529Z,21.50
2018-07-09T19:33:53.206Z,21.40
2018-07-09T19:36:20.751Z,21.40
2018-07-09T19:38:48.375Z,21.40
2018-07-09T19:41:15.778Z,21.30
2018-07-09T19:43:43.167Z,21.20
2018-07-09T19:46:12.556Z,21.20
2018-07-09T19:48:40.614Z,21.20
2018-07-09T19:51:07.986Z,21.20
2018-07-09T19:53:35.338Z,21.10
2018-07-09T19:56:02.691Z,21.10
2018-07-09T19:58:30.226Z,21.00
2018-07-09T20:00:57.595Z,20.90
2018-07-09T20:03:24.999Z,20.80
2018-07-09T20:05:52.921Z,20.70
2018-07-09T20:08:20.607Z,20.60
2018-07-09T20:10:53.324Z,20.60
2018-07-09T20:13:26.038Z,20.50
2018-07-09T20:15:58.714Z,20.50
2018-07-09T20:18:26.244Z,20.50
2018-07-09T20:20:54.099Z,20.40
2018-07-09T20:23:21.794Z,20.30
2018-07-09T20:25:49.162Z,20.40
2018-07-09T20:28:16.687Z,20.60
2018-07-09T20:30:44.072Z,20.60
2018-07-09T20:33:12.905Z,20.60
2018-07-09T20:35:40.287Z,20.50
2018-07-09T20:38:07.670Z,20.50
2018-07-09T20:40:35.147Z,20.60
2018-07-09T20:43:02.546Z,20.40
2018-07-09T20:45:30.018Z,20.40
2018-07-09T20:47:57.372Z,20.40
2018-07-09T20:50:24.830Z,20.30
2018-07-09T20:52:52.325Z,20.30
2018-07-09T20:55:20.420Z,20.10
2018-07-09T20:57:47.787Z,20.20
2018-07-09T21:00:15.360Z,20.20
2018-07-09T21:02:43.016Z,20.10
2018-07-09T21:05:10.603Z,20.10
2018-07-09T21:07:38.023Z,20.30
2018-07-09T21:10:05.387Z,20.30
2018-07-09T21:12:37.821Z,20.30
2018-07-09T21:15:05.279Z,20.40
2018-07-09T21:17:32.610Z,20.30
2018-07-09T21:20:00.026Z,20.30
2018-07-09T21:22:27.419Z,20.20
2018-07-09T21:24:54.784Z,20.20
2018-07-09T21:27:22.121Z,20.20
2018-07-09T21:29:50.360Z,20.30
2018-07-09T21:32:17.711Z,20.10
2018-07-09T21:34:45.063Z,20.10
2018-07-09T21:37:12.466Z,20.10
2018-07-09T21:39:39.830Z,20.00
2018-07-09T21:42:07.557Z,20.00
2018-07-09T21:44:34.935Z,20.00
2018-07-09T21:47:02.367Z,20.00
2018-07-09T21:49:31.915Z,20.00
2018-07-09T21:51:59.286Z,19.90
2018-07-09T21:54:26.721Z,19.80
2018-07-09T21:56:54.139Z,19.80
2018-07-09T21:59:21.526Z,19.80
